Time;durP1;ratioP1;P1;durP2;ratioP2;P2;SDS_P1;SDS_P2;PMS_P1;PMS_P2;Temp;Humidity;BMP_temperature;BMP_pressure;BME280_temperature;BME280_humidity;BME280_pressure;Samples;Min_cycle;Max_cycle;Signal;HPM_P1;HPM_P2
2023/03/02 00:01:10;;;;;;;48.65;18.15;;;;;;;-2.30;100.00;98983.81;2550640;29;20056;-84
2023/03/02 00:02:26;;;;;;;42.75;17.70;;;;;;;-2.36;100.00;98986.16;2551230;29;20071;-85
2023/03/02 00:03:41;;;;;;;45.28;16.95;;;;;;;-2.28;100.00;98987.31;2550634;29;20487;-84
2023/03/02 00:04:57;;;;;;;48.47;18.13;;;;;;;-2.27;100.00;98985.59;2551341;29;20052;-84
2023/03/02 00:06:13;;;;;;;39.72;16.23;;;;;;;-2.53;100.00;98989.88;2553019;29;20503;-85
2023/03/02 00:07:33;;;;;;;48.13;18.27;;;;;;;-2.34;100.00;98988.81;2550408;28;20126;-84
2023/03/02 00:08:48;;;;;;;47.30;18.92;;;;;;;-1.92;100.00;98985.84;2550249;29;20062;-83
2023/03/02 00:10:04;;;;;;;50.85;18.95;;;;;;;-1.79;100.00;98987.09;2550902;29;20067;-85
2023/03/02 00:11:21;;;;;;;43.35;18.25;;;;;;;-1.76;100.00;98988.88;2540640;29;20107;-84
2023/03/02 00:12:36;;;;;;;45.28;18.17;;;;;;;-1.74;100.00;98990.69;2545725;29;20051;-84
2023/03/02 00:13:52;;;;;;;45.05;18.67;;;;;;;-1.74;100.00;98993.25;2551717;29;20426;-84
2023/03/02 00:15:08;;;;;;;45.03;18.23;;;;;;;-1.73;100.00;98995.00;2550383;29;20490;-83
2023/03/02 00:16:24;;;;;;;54.30;20.10;;;;;;;-1.93;100.00;98994.38;2549900;29;20055;-83
2023/03/02 00:17:40;;;;;;;53.33;20.98;;;;;;;-1.91;100.00;98997.84;2551714;29;20054;-83
2023/03/02 00:18:55;;;;;;;57.40;20.63;;;;;;;-1.83;100.00;98999.78;2550919;29;20059;-83
2023/03/02 00:20:11;;;;;;;52.72;20.75;;;;;;;-1.83;100.00;98998.09;2552625;29;20067;-84
2023/03/02 00:21:27;;;;;;;54.55;20.55;;;;;;;-1.79;100.00;98989.66;2550923;29;20506;-83
2023/03/02 00:22:44;;;;;;;50.20;19.27;;;;;;;-2.00;100.00;98992.44;2551724;29;20128;-85
2023/03/02 00:24:00;;;;;;;54.47;20.23;;;;;;;-2.04;100.00;98998.28;2552603;29;20198;-83
2023/03/02 00:25:16;;;;;;;54.72;20.77;;;;;;;-1.88;100.00;99000.50;2552586;28;20056;-85
2023/03/02 00:26:33;;;;;;;51.15;20.33;;;;;;;-1.99;100.00;98999.31;2551860;29;20055;-84
2023/03/02 00:27:49;;;;;;;55.85;21.67;;;;;;;-2.17;100.00;99002.16;2552751;29;20446;-87
2023/03/02 00:29:05;;;;;;;50.08;20.63;;;;;;;-2.17;100.00;98994.44;2551372;29;20134;-84
2023/03/02 00:30:20;;;;;;;54.13;20.92;;;;;;;-2.11;100.00;98996.34;2551185;29;20051;-84
2023/03/02 00:31:37;;;;;;;49.13;20.63;;;;;;;-2.23;100.00;99000.28;2552350;28;20052;-86
2023/03/02 00:33:01;;;;;;;45.60;19.00;;;;;;;-2.26;100.00;98997.59;2551087;29;20098;-84
2023/03/02 00:34:16;;;;;;;46.13;17.77;;;;;;;-2.11;100.00;98989.53;2549786;29;20059;-86
2023/03/02 00:35:39;;;;;;;48.03;19.92;;;;;;;-2.15;100.00;98993.69;2551104;29;20264;-85
2023/03/02 00:36:55;;;;;;;49.20;19.30;;;;;;;-2.17;100.00;98994.44;2549268;29;20130;-83
2023/03/02 00:38:11;;;;;;;43.67;18.40;;;;;;;-2.45;100.00;98998.69;2539806;29;20059;-83
2023/03/02 00:39:27;;;;;;;46.10;19.00;;;;;;;-2.25;100.00;98996.78;2543883;29;20126;-83
2023/03/02 00:40:48;;;;;;;48.42;19.15;;;;;;;-2.19;100.00;98988.41;2549917;29;20063;-84
2023/03/02 00:42:03;;;;;;;51.65;18.17;;;;;;;-2.25;100.00;98994.22;2541960;29;20055;-83
2023/03/02 00:43:21;;;;;;;50.55;18.63;;;;;;;-2.17;100.00;98990.22;2545810;29;20127;-83
2023/03/02 00:44:37;;;;;;;49.67;19.23;;;;;;;-2.03;100.00;98994.91;2549774;29;20091;-83
2023/03/02 00:45:55;;;;;;;46.15;19.38;;;;;;;-1.99;100.00;98994.16;2552285;29;20116;-87
2023/03/02 00:47:11;;;;;;;44.13;17.45;;;;;;;-2.22;100.00;98991.75;2550178;29;20403;-85
2023/03/02 00:48:27;;;;;;;50.72;19.60;;;;;;;-2.27;100.00;98988.16;2538992;29;20074;-84
2023/03/02 00:49:47;;;;;;;51.75;19.13;;;;;;;-2.08;100.00;98983.63;2546090;29;20097;-84
2023/03/02 00:51:04;;;;;;;48.78;19.55;;;;;;;-2.22;100.00;98981.50;2551593;29;20410;-83
2023/03/02 00:52:20;;;;;;;47.33;18.98;;;;;;;-2.13;100.00;98984.34;2551169;29;20085;-84
2023/03/02 00:53:36;;;;;;;54.05;20.67;;;;;;;-1.99;100.00;98981.34;2551387;29;20176;-85
2023/03/02 00:54:51;;;;;;;47.90;18.85;;;;;;;-2.44;100.00;98985.06;2550407;29;20533;-84
2023/03/02 00:56:08;;;;;;;43.38;18.73;;;;;;;-2.11;100.00;98981.84;2552263;29;20077;-84
2023/03/02 00:57:24;;;;;;;44.33;17.73;;;;;;;-1.99;100.00;98978.78;2552134;29;20047;-83
2023/03/02 00:58:39;;;;;;;45.00;18.90;;;;;;;-2.05;100.00;98976.03;2549807;29;20054;-85
2023/03/02 00:59:55;;;;;;;41.47;17.98;;;;;;;-2.01;100.00;98976.19;2551039;29;20118;-85
2023/03/02 01:01:12;;;;;;;47.53;18.95;;;;;;;-2.01;100.00;98976.19;2549692;29;20059;-84
2023/03/02 01:02:28;;;;;;;46.97;18.92;;;;;;;-2.17;100.00;98971.38;2551476;29;20055;-83
2023/03/02 01:03:43;;;;;;;48.92;19.10;;;;;;;-2.49;100.00;98981.47;2549290;29;20051;-84
2023/03/02 01:04:59;;;;;;;47.50;19.25;;;;;;;-2.24;100.00;98970.28;2551922;29;20135;-84
2023/03/02 01:06:18;;;;;;;43.83;18.70;;;;;;;-2.13;100.00;98968.94;2552100;29;20051;-83
2023/03/02 01:07:33;;;;;;;41.88;16.90;;;;;;;-2.44;100.00;98967.97;2552095;29;20059;-84
2023/03/02 01:08:49;;;;;;;48.25;21.02;;;;;;;-2.30;100.00;98970.13;2550287;29;20057;-84
2023/03/02 01:10:05;;;;;;;47.03;19.10;;;;;;;-2.29;100.00;98965.03;2551010;29;20457;-83
2023/03/02 01:11:21;;;;;;;45.85;18.13;;;;;;;-2.20;100.00;98972.16;2551588;29;20066;-84
2023/03/02 01:12:37;;;;;;;45.25;18.88;;;;;;;-2.22;100.00;98968.69;2549041;29;20137;-89
2023/03/02 01:13:53;;;;;;;48.05;19.17;;;;;;;-2.25;100.00;98963.44;2550467;29;20059;-83
2023/03/02 01:15:09;;;;;;;46.22;18.67;;;;;;;-2.18;100.00;98960.25;2540485;29;20599;-84
2023/03/02 01:16:25;;;;;;;42.08;18.17;;;;;;;-2.16;100.00;98958.59;2543654;29;20077;-84
2023/03/02 01:17:42;;;;;;;47.22;19.65;;;;;;;-2.33;100.00;98957.19;2549932;29;20055;-83
2023/03/02 01:18:58;;;;;;;49.85;18.77;;;;;;;-2.70;100.00;98952.59;2552239;29;20472;-84
2023/03/02 01:20:15;;;;;;;50.67;19.77;;;;;;;-2.37;100.00;98948.53;2549910;29;20055;-83
2023/03/02 01:21:31;;;;;;;57.42;20.80;;;;;;;-2.31;100.00;98948.72;2551794;29;20079;-83
2023/03/02 01:22:47;;;;;;;48.17;19.17;;;;;;;-2.31;100.00;98943.59;2550376;29;20051;-85
2023/03/02 01:24:03;;;;;;;47.22;19.00;;;;;;;-2.21;100.00;98944.78;2549524;29;20058;-83
2023/03/02 01:25:18;;;;;;;46.10;18.20;;;;;;;-2.18;100.00;98946.53;2550375;29;20059;-83
2023/03/02 01:26:34;;;;;;;46.80;19.25;;;;;;;-2.48;100.00;98943.06;2552080;29;20047;-83
2023/03/02 01:27:50;;;;;;;45.67;18.90;;;;;;;-2.70;100.00;98944.91;2552346;29;20138;-85
2023/03/02 01:29:06;;;;;;;42.35;18.30;;;;;;;-2.53;100.00;98939.47;2549855;29;21037;-84
2023/03/02 01:30:21;;;;;;;47.35;18.73;;;;;;;-2.58;100.00;98935.88;2538585;29;20127;-85
2023/03/02 01:31:37;;;;;;;49.40;19.10;;;;;;;-2.63;100.00;98940.00;2544630;29;20074;-84
2023/03/02 01:32:53;;;;;;;47.05;18.48;;;;;;;-2.51;100.00;98936.97;2551183;29;20705;-84
2023/03/02 01:34:09;;;;;;;45.28;19.05;;;;;;;-2.67;100.00;98930.44;2548631;28;20122;-83
2023/03/02 01:35:24;;;;;;;44.65;17.00;;;;;;;-2.47;100.00;98941.34;2550565;29;20422;-82
2023/03/02 01:36:43;;;;;;;43.40;18.50;;;;;;;-2.79;100.00;98941.16;2551213;29;20051;-86
2023/03/02 01:37:59;;;;;;;47.53;18.90;;;;;;;-2.58;100.00;98930.75;2550762;29;20055;-83
2023/03/02 01:39:15;;;;;;;47.03;18.83;;;;;;;-2.61;100.00;98928.97;2550400;29;20510;-83
2023/03/02 01:40:30;;;;;;;40.55;17.38;;;;;;;-2.63;100.00;98927.19;2552018;29;20078;-83
2023/03/02 01:41:46;;;;;;;41.58;18.10;;;;;;;-2.57;100.00;98932.50;2549242;29;20055;-84
2023/03/02 01:43:03;;;;;;;45.42;18.00;;;;;;;-2.53;100.00;98929.19;2551130;29;20051;-83
2023/03/02 01:44:40;;;;;;;44.17;17.48;;;;;;;-2.44;100.00;98934.63;2552835;29;20532;-84
2023/03/02 01:46:00;;;;;;;43.53;17.92;;;;;;;-2.43;100.00;98926.13;2551365;29;20680;-83
2023/03/02 01:47:21;;;;;;;43.72;19.10;;;;;;;-2.41;100.00;98928.75;2553132;29;20051;-83
2023/03/02 01:48:46;;;;;;;41.40;17.70;;;;;;;-2.64;100.00;98930.56;2552148;29;20086;-83
2023/03/02 01:50:18;;;;;;;43.20;17.95;;;;;;;-2.59;100.00;98939.28;2551820;29;20050;-85
2023/03/02 01:51:42;;;;;;;45.00;17.95;;;;;;;-2.58;100.00;98930.75;2554119;29;20056;-83
2023/03/02 01:52:58;;;;;;;45.42;19.27;;;;;;;-2.55;100.00;98925.72;2552813;29;20142;-83
2023/03/02 01:54:21;;;;;;;45.92;18.10;;;;;;;-2.71;100.00;98930.34;2542227;29;20051;-85
2023/03/02 01:55:38;;;;;;;48.40;18.30;;;;;;;-2.76;100.00;98919.09;2547766;29;20454;-83
2023/03/02 01:56:57;;;;;;;50.20;18.48;;;;;;;-2.78;100.00;98918.16;2553293;29;20178;-83
2023/03/02 01:58:15;;;;;;;43.95;17.73;;;;;;;-2.96;100.00;98915.84;2551633;29;20055;-82
2023/03/02 01:59:35;;;;;;;50.85;18.02;;;;;;;-3.07;100.00;98923.19;2551040;29;20340;-87
2023/03/02 02:00:53;;;;;;;48.75;19.17;;;;;;;-3.08;100.00;98918.84;2552118;29;20102;-83
2023/03/02 02:02:10;;;;;;;52.97;19.83;;;;;;;-2.93;100.00;98920.19;2554174;29;20167;-83
2023/03/02 02:03:29;;;;;;;44.38;19.05;;;;;;;-2.82;100.00;98912.88;2551069;29;20368;-83
2023/03/02 02:04:47;;;;;;;44.70;19.42;;;;;;;-2.81;100.00;98910.34;2551023;29;20061;-85
2023/03/02 02:06:12;;;;;;;44.20;18.80;;;;;;;-2.86;100.00;98915.34;2553255;29;20059;-82
2023/03/02 02:07:27;;;;;;;46.88;17.58;;;;;;;-3.18;100.00;98917.66;2552605;29;20047;-82
2023/03/02 02:08:45;;;;;;;45.45;17.48;;;;;;;-3.26;100.00;98919.97;2553332;29;20067;-83
2023/03/02 02:10:01;;;;;;;49.42;18.88;;;;;;;-3.23;100.00;98920.88;2550873;29;20051;-83
2023/03/02 02:11:17;;;;;;;44.42;17.33;;;;;;;-3.08;100.00;98916.28;2551543;29;20055;-82
2023/03/02 02:12:33;;;;;;;46.22;18.88;;;;;;;-3.13;100.00;98912.72;2553619;29;21071;-85
2023/03/02 02:13:54;;;;;;;46.03;18.55;;;;;;;-3.05;100.00;98906.19;2542359;29;20064;-83
2023/03/02 02:15:10;;;;;;;46.80;18.33;;;;;;;-2.96;100.00;98904.72;2547306;29;20482;-83
2023/03/02 02:16:27;;;;;;;47.78;18.83;;;;;;;-2.87;100.00;98905.03;2553539;29;20793;-83
2023/03/02 02:17:42;;;;;;;43.53;18.35;;;;;;;-3.24;100.00;98903.78;2551433;29;20111;-83
2023/03/02 02:18:59;;;;;;;53.97;19.90;;;;;;;-2.97;100.00;98893.63;2552621;28;20111;-83
2023/03/02 02:20:27;;;;;;;50.75;18.95;;;;;;;-3.15;100.00;98896.44;2551887;29;20079;-83
2023/03/02 02:21:43;;;;;;;48.05;17.38;;;;;;;-3.16;100.00;98894.69;2550829;29;20566;-82
2023/03/02 02:23:23;;;;;;;45.70;17.83;;;;;;;-3.04;100.00;98897.66;2552048;29;20214;-85
2023/03/02 02:24:45;;;;;;;43.95;17.77;;;;;;;-3.24;100.00;98896.09;2551187;29;20134;-83
2023/03/02 02:26:06;;;;;;;50.97;19.58;;;;;;;-3.22;100.00;98894.47;2552968;29;20059;-83
2023/03/02 02:27:32;;;;;;;44.47;17.65;;;;;;;-3.62;100.00;98899.94;2552708;29;20079;-83
2023/03/02 02:28:59;;;;;;;43.90;17.05;;;;;;;-3.55;100.00;98901.88;2553258;29;20091;-83
2023/03/02 02:30:15;;;;;;;44.50;17.88;;;;;;;-3.33;100.00;98896.66;2551578;29;20122;-83
2023/03/02 02:31:47;;;;;;;46.83;17.80;;;;;;;-3.32;100.00;98893.28;2551650;28;20039;-83
2023/03/02 02:33:04;;;;;;;52.13;19.98;;;;;;;-3.18;100.00;98898.88;2551827;29;20079;-84
2023/03/02 02:34:29;;;;;;;44.17;18.15;;;;;;;-3.00;100.00;98891.81;2553455;29;20059;-83
2023/03/02 02:35:46;;;;;;;42.08;17.63;;;;;;;-2.95;100.00;98886.84;2552711;29;20083;-84
2023/03/02 02:37:37;;;;;;;45.45;18.33;;;;;;;-3.19;100.00;98889.47;2552823;29;20135;-83
2023/03/02 02:38:55;;;;;;;37.88;16.15;;;;;;;-3.32;100.00;98886.47;2549187;29;20051;-83
2023/03/02 02:40:19;;;;;;;41.80;17.58;;;;;;;-3.12;100.00;98888.84;2551003;29;20146;-83
2023/03/02 02:41:38;;;;;;;46.13;18.23;;;;;;;-3.22;100.00;98892.78;2553131;29;20485;-83
2023/03/02 02:42:53;;;;;;;41.60;18.00;;;;;;;-3.29;100.00;98884.00;2553461;29;20336;-85
2023/03/02 02:44:13;;;;;;;45.75;17.85;;;;;;;-3.41;100.00;98886.16;2550746;29;20106;-83
2023/03/02 02:45:29;;;;;;;48.72;17.35;;;;;;;-3.27;100.00;98887.50;2553534;29;20059;-83
2023/03/02 02:46:45;;;;;;;46.92;17.67;;;;;;;-3.12;100.00;98881.16;2550632;29;20066;-83
2023/03/02 02:48:01;;;;;;;45.65;17.10;;;;;;;-3.48;100.00;98882.50;2550707;29;20505;-84
2023/03/02 02:49:25;;;;;;;42.80;17.55;;;;;;;-3.41;100.00;98886.16;2552230;29;20151;-83
2023/03/02 02:50:42;;;;;;;42.08;17.05;;;;;;;-3.38;100.00;98886.25;2552028;29;20086;-88
2023/03/02 02:51:58;;;;;;;50.92;18.50;;;;;;;-3.55;100.00;98878.84;2551408;29;20417;-84
2023/03/02 02:53:28;;;;;;;37.22;15.27;;;;;;;-3.85;100.00;98881.16;2551802;28;20486;-84
2023/03/02 02:54:47;;;;;;;47.85;17.67;;;;;;;-3.67;100.00;98880.97;2551808;29;20063;-84
2023/03/02 02:56:05;;;;;;;48.65;18.00;;;;;;;-3.74;100.00;98885.00;2552413;29;20487;-84
2023/03/02 02:57:24;;;;;;;49.92;18.73;;;;;;;-3.58;100.00;98877.84;2552481;29;20055;-83
2023/03/02 02:58:48;;;;;;;47.20;16.95;;;;;;;-3.69;100.00;98873.25;2551997;29;20510;-84
2023/03/02 03:00:05;;;;;;;50.00;17.00;;;;;;;-3.77;100.00;98876.31;2550100;29;20051;-83
2023/03/02 03:01:25;;;;;;;38.05;15.73;;;;;;;-3.79;100.00;98875.41;2542498;29;20328;-85
2023/03/02 03:02:44;;;;;;;44.08;17.20;;;;;;;-3.49;100.00;98873.06;2547325;29;20897;-83
2023/03/02 03:04:02;;;;;;;50.95;19.70;;;;;;;-3.29;100.00;98880.56;2551395;28;20055;-85
2023/03/02 03:05:18;;;;;;;49.28;18.55;;;;;;;-3.22;100.00;98871.41;2550816;28;20055;-84
2023/03/02 03:06:40;;;;;;;47.35;19.25;;;;;;;-3.33;100.00;98879.63;2552422;29;20094;-83
2023/03/02 03:08:29;;;;;;;44.60;18.25;;;;;;;-3.16;100.00;98867.38;2550989;29;20078;-83
2023/03/02 03:09:47;;;;;;;46.95;16.80;;;;;;;-3.29;100.00;98868.66;2551101;28;20058;-84
2023/03/02 03:11:03;;;;;;;41.83;16.23;;;;;;;-3.71;100.00;98868.88;2551902;29;20520;-84
2023/03/02 03:12:23;;;;;;;44.13;18.85;;;;;;;-3.59;100.00;98869.31;2550630;29;20051;-83
2023/03/02 03:13:41;;;;;;;41.85;17.13;;;;;;;-3.63;100.00;98866.59;2553107;29;20047;-84
2023/03/02 03:14:58;;;;;;;43.28;16.35;;;;;;;-3.75;100.00;98867.91;2552575;29;20157;-84
2023/03/02 03:16:14;;;;;;;49.75;18.02;;;;;;;-3.61;100.00;98865.84;2551043;29;20067;-83
2023/03/02 03:17:30;;;;;;;41.00;16.17;;;;;;;-3.73;100.00;98866.25;2551033;29;20517;-84
2023/03/02 03:18:48;;;;;;;43.53;17.70;;;;;;;-3.63;100.00;98862.38;2552359;29;20043;-84
2023/03/02 03:20:08;;;;;;;42.75;18.27;;;;;;;-3.42;100.00;98862.25;2550782;28;20078;-83
2023/03/02 03:21:24;;;;;;;47.10;17.80;;;;;;;-3.56;100.00;98861.75;2553388;29;20471;-84
2023/03/02 03:22:39;;;;;;;43.38;17.20;;;;;;;-3.66;100.00;98862.22;2551088;29;20062;-83
2023/03/02 03:23:55;;;;;;;43.65;17.45;;;;;;;-3.54;100.00;98864.38;2551928;28;20051;-83
2023/03/02 03:25:14;;;;;;;45.58;18.45;;;;;;;-3.45;100.00;98864.69;2550309;29;20047;-84
2023/03/02 03:26:30;;;;;;;48.13;18.70;;;;;;;-3.53;100.00;98863.56;2550442;29;20083;-85
2023/03/02 03:27:45;;;;;;;50.38;18.55;;;;;;;-3.64;100.00;98869.97;2550437;29;20051;-83
2023/03/02 03:29:02;;;;;;;44.75;18.30;;;;;;;-3.83;100.00;98867.63;2552223;29;20036;-83
2023/03/02 03:30:18;;;;;;;46.67;18.60;;;;;;;-3.90;100.00;98868.22;2551749;29;20080;-84
2023/03/02 03:31:34;;;;;;;42.63;16.95;;;;;;;-3.93;100.00;98870.66;2550250;29;20608;-83
2023/03/02 03:32:49;;;;;;;49.30;19.35;;;;;;;-3.69;100.00;98868.13;2552554;29;20071;-84
2023/03/02 03:34:06;;;;;;;50.92;19.25;;;;;;;-3.49;100.00;98870.53;2550648;29;20052;-84
2023/03/02 03:35:21;;;;;;;48.97;19.10;;;;;;;-3.29;100.00;98862.66;2551471;29;20277;-83
2023/03/02 03:36:37;;;;;;;45.40;19.20;;;;;;;-3.19;100.00;98869.84;2552508;28;20047;-83
2023/03/02 03:37:53;;;;;;;49.95;19.88;;;;;;;-3.18;100.00;98874.13;2551820;29;20328;-84
2023/03/02 03:39:10;;;;;;;49.97;18.52;;;;;;;-3.39;100.00;98871.69;2550942;29;20055;-84
2023/03/02 03:40:26;;;;;;;42.95;17.65;;;;;;;-3.40;100.00;98875.09;2552117;29;20526;-83
2023/03/02 03:41:42;;;;;;;53.60;18.83;;;;;;;-3.33;100.00;98873.59;2552656;29;20105;-86
2023/03/02 03:42:57;;;;;;;46.47;18.67;;;;;;;-3.35;100.00;98876.13;2552792;29;20048;-84
2023/03/02 03:44:13;;;;;;;44.38;17.85;;;;;;;-3.34;100.00;98872.75;2550283;29;20055;-86
2023/03/02 03:45:29;;;;;;;51.30;18.58;;;;;;;-3.33;100.00;98871.94;2551872;29;20094;-87
2023/03/02 03:46:45;;;;;;;45.47;18.63;;;;;;;-3.21;100.00;98874.03;2550377;29;20087;-84
2023/03/02 03:48:01;;;;;;;48.00;19.17;;;;;;;-3.21;100.00;98870.59;2550478;29;20115;-84
2023/03/02 03:49:16;;;;;;;49.90;18.10;;;;;;;-3.29;100.00;98873.78;2550483;29;20055;-84
2023/03/02 03:50:32;;;;;;;45.15;18.65;;;;;;;-3.38;100.00;98876.00;2551212;29;20048;-84
2023/03/02 03:51:48;;;;;;;46.08;17.63;;;;;;;-3.38;100.00;98878.56;2550308;29;20247;-86
2023/03/02 03:53:03;;;;;;;44.38;17.35;;;;;;;-3.37;100.00;98879.44;2549936;29;20075;-84
2023/03/02 03:54:19;;;;;;;43.25;18.20;;;;;;;-3.47;100.00;98880.81;2551914;29;20486;-84
2023/03/02 03:55:34;;;;;;;45.17;18.00;;;;;;;-3.63;100.00;98881.97;2550052;29;20052;-84
2023/03/02 03:56:50;;;;;;;42.85;17.58;;;;;;;-3.62;100.00;98887.13;2552184;29;20066;-85
2023/03/02 03:58:06;;;;;;;45.47;17.83;;;;;;;-3.78;100.00;98883.16;2551717;29;20483;-83
2023/03/02 03:59:23;;;;;;;44.67;17.88;;;;;;;-3.84;100.00;98878.69;2551409;28;20435;-84
2023/03/02 04:00:39;;;;;;;42.40;17.63;;;;;;;-3.95;100.00;98879.09;2550162;29;20060;-84
2023/03/02 04:01:58;;;;;;;42.85;17.98;;;;;;;-3.84;100.00;98880.38;2551228;29;20070;-84
2023/03/02 04:03:14;;;;;;;45.22;17.95;;;;;;;-3.67;100.00;98890.34;2551369;29;20102;-84
2023/03/02 04:04:33;;;;;;;39.47;17.60;;;;;;;-3.71;100.00;98886.78;2552892;29;20055;-84
2023/03/02 04:05:49;;;;;;;43.10;17.58;;;;;;;-3.61;100.00;98886.31;2552280;29;20162;-85
2023/03/02 04:07:04;;;;;;;44.67;17.63;;;;;;;-3.55;100.00;98881.41;2549600;29;20086;-85
2023/03/02 04:08:20;;;;;;;46.78;17.98;;;;;;;-3.64;100.00;98886.19;2550991;29;20063;-84
2023/03/02 04:09:36;;;;;;;48.70;18.48;;;;;;;-3.67;100.00;98883.53;2552657;29;20137;-85
2023/03/02 04:10:52;;;;;;;45.88;17.00;;;;;;;-3.80;100.00;98878.78;2550365;29;20091;-84
2023/03/02 04:12:08;;;;;;;43.30;18.02;;;;;;;-3.78;100.00;98880.59;2552922;29;20060;-85
2023/03/02 04:13:25;;;;;;;45.00;18.05;;;;;;;-3.63;100.00;98876.84;2541883;29;20059;-85
2023/03/02 04:14:40;;;;;;;53.65;19.98;;;;;;;-3.57;100.00;98875.38;2544909;29;20083;-84
2023/03/02 04:15:56;;;;;;;45.78;17.27;;;;;;;-3.69;100.00;98875.81;2550988;28;20090;-83
2023/03/02 04:17:11;;;;;;;46.55;17.98;;;;;;;-3.59;100.00;98871.88;2551253;29;20047;-84
2023/03/02 04:18:27;;;;;;;51.03;19.25;;;;;;;-3.53;100.00;98867.78;2550918;29;20086;-84
2023/03/02 04:19:44;;;;;;;44.00;17.58;;;;;;;-3.61;100.00;98870.97;2552736;28;20048;-84
2023/03/02 04:21:00;;;;;;;47.88;19.42;;;;;;;-3.49;100.00;98877.31;2549881;29;20141;-84
2023/03/02 04:22:16;;;;;;;44.10;17.67;;;;;;;-3.46;100.00;98872.31;2551541;29;20938;-83
2023/03/02 04:23:31;;;;;;;47.25;17.77;;;;;;;-3.77;100.00;98873.75;2551151;29;20490;-83
2023/03/02 04:24:48;;;;;;;50.80;18.92;;;;;;;-3.72;100.00;98872.25;2550816;29;20130;-84
2023/03/02 04:26:04;;;;;;;44.72;18.55;;;;;;;-3.76;100.00;98871.28;2551949;28;20043;-84
2023/03/02 04:27:19;;;;;;;52.08;19.73;;;;;;;-3.66;100.00;98869.06;2551826;29;20079;-84
2023/03/02 04:28:35;;;;;;;50.97;19.02;;;;;;;-3.48;100.00;98866.28;2551377;29;20493;-83
2023/03/02 04:29:51;;;;;;;46.97;17.63;;;;;;;-3.64;100.00;98875.09;2552249;29;20043;-83
2023/03/02 04:31:07;;;;;;;47.70;19.48;;;;;;;-3.58;100.00;98865.06;2551356;29;20062;-84
2023/03/02 04:32:23;;;;;;;49.40;20.10;;;;;;;-3.61;100.00;98868.41;2551493;28;20138;-85
2023/03/02 04:33:38;;;;;;;54.75;21.33;;;;;;;-3.72;100.00;98874.81;2550647;29;20067;-85
2023/03/02 04:34:54;;;;;;;61.22;21.83;;;;;;;-4.17;100.00;98868.94;2551539;29;20076;-84
2023/03/02 04:36:10;;;;;;;55.78;19.73;;;;;;;-4.26;100.00;98871.13;2539446;29;20143;-84
2023/03/02 04:37:26;;;;;;;50.97;18.50;;;;;;;-3.99;100.00;98875.56;2545326;29;20051;-84
2023/03/02 04:38:41;;;;;;;50.17;19.02;;;;;;;-3.78;100.00;98874.59;2552398;29;20056;-83
2023/03/02 04:39:57;;;;;;;47.47;19.33;;;;;;;-3.85;100.00;98879.50;2549523;29;20890;-84
2023/03/02 04:41:12;;;;;;;51.97;19.67;;;;;;;-3.65;100.00;98874.22;2550574;29;20063;-84
2023/03/02 04:42:28;;;;;;;44.42;18.45;;;;;;;-3.66;100.00;98876.72;2549429;29;20054;-83
2023/03/02 04:43:44;;;;;;;46.10;19.20;;;;;;;-3.55;100.00;98881.41;2549780;29;20510;-83
2023/03/02 04:45:00;;;;;;;44.95;18.20;;;;;;;-3.49;100.00;98880.75;2551571;29;20047;-83
2023/03/02 04:46:20;;;;;;;47.00;19.15;;;;;;;-3.57;100.00;98882.16;2551635;29;20476;-83
2023/03/02 04:47:36;;;;;;;43.92;17.27;;;;;;;-3.51;100.00;98884.06;2550178;29;20490;-83
2023/03/02 04:48:52;;;;;;;47.70;18.20;;;;;;;-3.55;100.00;98889.09;2549755;29;20048;-87
2023/03/02 04:50:10;;;;;;;47.92;18.58;;;;;;;-3.57;100.00;98888.16;2550853;29;20496;-84
2023/03/02 04:51:29;;;;;;;48.58;19.13;;;;;;;-3.60;100.00;98887.19;2551501;28;20426;-84
2023/03/02 04:52:45;;;;;;;45.90;17.45;;;;;;;-3.75;100.00;98888.38;2549963;29;20511;-82
2023/03/02 04:54:05;;;;;;;46.00;18.55;;;;;;;-3.59;100.00;98889.81;2550840;29;20055;-83
2023/03/02 04:55:23;;;;;;;46.47;18.33;;;;;;;-3.73;100.00;98883.31;2550926;29;20166;-86
2023/03/02 04:56:39;;;;;;;46.65;18.10;;;;;;;-3.56;100.00;98884.78;2552004;29;20051;-84
2023/03/02 04:57:54;;;;;;;48.47;18.10;;;;;;;-3.69;100.00;98887.72;2549756;29;20545;-83
2023/03/02 04:59:10;;;;;;;47.25;18.67;;;;;;;-3.66;100.00;98886.97;2550168;29;20062;-84
2023/03/02 05:00:27;;;;;;;50.13;19.52;;;;;;;-3.93;100.00;98891.13;2551159;29;20070;-85
2023/03/02 05:01:43;;;;;;;54.58;21.15;;;;;;;-3.72;100.00;98880.78;2549792;29;20421;-88
2023/03/02 05:03:01;;;;;;;55.60;20.48;;;;;;;-3.63;100.00;98880.28;2551129;29;20051;-83
2023/03/02 05:04:17;;;;;;;51.80;20.25;;;;;;;-3.59;100.00;98878.69;2551267;29;20055;-84
2023/03/02 05:05:33;;;;;;;55.78;19.00;;;;;;;-4.07;100.00;98888.06;2551390;29;20075;-82
2023/03/02 05:06:48;;;;;;;53.67;20.63;;;;;;;-3.90;100.00;98881.03;2551028;29;20157;-82
2023/03/02 05:08:04;;;;;;;50.05;19.85;;;;;;;-4.14;100.00;98884.41;2550334;28;20487;-82
2023/03/02 05:09:25;;;;;;;54.90;19.48;;;;;;;-3.80;100.00;98892.47;2551046;29;20055;-82
2023/03/02 05:10:41;;;;;;;49.03;19.27;;;;;;;-3.83;100.00;98880.41;2550508;29;20063;-82
2023/03/02 05:11:59;;;;;;;55.33;21.27;;;;;;;-3.71;100.00;98889.34;2551391;29;20138;-82
2023/03/02 05:13:15;;;;;;;49.35;18.80;;;;;;;-3.71;100.00;98894.47;2551409;29;20130;-82
2023/03/02 05:14:31;;;;;;;51.70;19.42;;;;;;;-3.84;100.00;98891.47;2550288;29;20138;-82
2023/03/02 05:15:47;;;;;;;47.55;19.45;;;;;;;-3.74;100.00;98897.78;2550039;29;20414;-82
2023/03/02 05:17:02;;;;;;;50.45;20.23;;;;;;;-3.68;100.00;98897.13;2550700;29;20739;-84
2023/03/02 05:18:19;;;;;;;44.97;18.38;;;;;;;-3.71;100.00;98894.47;2548958;29;20051;-84
2023/03/02 05:19:34;;;;;;;52.95;19.27;;;;;;;-3.66;100.00;98897.22;2549290;29;20390;-84
2023/03/02 05:20:51;;;;;;;53.35;20.15;;;;;;;-3.73;100.00;98888.44;2549267;28;20055;-83
2023/03/02 05:22:07;;;;;;;47.58;19.58;;;;;;;-3.68;100.00;98889.47;2552206;29;20418;-83
2023/03/02 05:23:23;;;;;;;52.40;21.38;;;;;;;-3.68;100.00;98881.78;2549370;29;20062;-84
2023/03/02 05:24:39;;;;;;;53.47;19.77;;;;;;;-3.63;100.00;98893.06;2549430;29;20043;-86
2023/03/02 05:25:55;;;;;;;41.30;18.50;;;;;;;-3.60;100.00;98889.75;2550366;29;20044;-86
2023/03/02 05:27:10;;;;;;;52.90;20.15;;;;;;;-3.75;100.00;98890.94;2549980;29;20048;-86
2023/03/02 05:28:27;;;;;;;45.53;18.45;;;;;;;-4.01;100.00;98889.97;2540436;29;20860;-85
2023/03/02 05:29:42;;;;;;;48.33;19.23;;;;;;;-4.15;100.00;98880.09;2543014;29;20147;-85
2023/03/02 05:30:58;;;;;;;48.60;18.77;;;;;;;-3.91;100.00;98889.50;2549544;29;20075;-85
2023/03/02 05:32:14;;;;;;;45.78;19.17;;;;;;;-3.90;100.00;98893.81;2550817;29;20047;-86
2023/03/02 05:33:30;;;;;;;49.80;18.50;;;;;;;-3.85;100.00;98887.16;2550434;29;20507;-85
2023/03/02 05:34:45;;;;;;;45.40;17.95;;;;;;;-3.98;100.00;98890.09;2551229;29;20552;-85
2023/03/02 05:36:01;;;;;;;50.72;19.45;;;;;;;-4.02;100.00;98889.09;2550822;29;20051;-85
2023/03/02 05:37:17;;;;;;;47.08;17.98;;;;;;;-3.99;100.00;98890.91;2549896;28;20396;-87
2023/03/02 05:38:33;;;;;;;42.70;17.65;;;;;;;-4.03;100.00;98892.47;2550549;29;20055;-85
2023/03/02 05:39:48;;;;;;;47.45;17.88;;;;;;;-3.99;100.00;98889.19;2550003;29;20255;-85
2023/03/02 05:41:04;;;;;;;48.25;17.73;;;;;;;-4.19;100.00;98895.25;2551840;29;20110;-86
2023/03/02 05:42:20;;;;;;;48.28;18.90;;;;;;;-4.04;100.00;98890.72;2549430;29;20043;-85
2023/03/02 05:43:35;;;;;;;50.83;18.92;;;;;;;-3.98;100.00;98892.63;2550762;29;20539;-85
2023/03/02 05:44:51;;;;;;;48.22;18.65;;;;;;;-3.88;100.00;98891.28;2549449;29;20039;-85
2023/03/02 05:46:07;;;;;;;46.85;18.13;;;;;;;-3.86;100.00;98890.53;2550047;29;20066;-86
2023/03/02 05:47:22;;;;;;;46.80;18.23;;;;;;;-4.13;100.00;98886.13;2551131;29;20052;-90
2023/03/02 05:48:38;;;;;;;46.50;18.35;;;;;;;-4.08;100.00;98886.31;2550699;28;20513;-86
2023/03/02 05:49:58;;;;;;;40.97;16.98;;;;;;;-4.06;100.00;98891.47;2550287;29;20062;-85
2023/03/02 05:51:14;;;;;;;42.15;17.63;;;;;;;-3.96;100.00;98896.13;2538536;29;20237;-85
2023/03/02 05:52:30;;;;;;;41.30;17.48;;;;;;;-3.99;100.00;98885.78;2543393;29;20557;-88